createdAt,value
2023-01-18T00:00:19.637Z,0.0
2023-01-18T00:05:19.608Z,0.0
2023-01-18T00:10:19.615Z,0.0
2023-01-18T00:15:16.706Z,0.0
2023-01-18T00:20:16.655Z,0.0
2023-01-18T00:25:16.673Z,0.0
2023-01-18T00:30:19.711Z,0.0
2023-01-18T00:35:19.707Z,0.0
2023-01-18T00:40:19.643Z,0.0
2023-01-18T00:45:16.708Z,0.0
2023-01-18T00:50:19.704Z,0.0
2023-01-18T00:55:16.706Z,0.0
2023-01-18T01:00:19.656Z,0.0
2023-01-18T01:05:19.688Z,0.0
2023-01-18T01:10:19.644Z,0.0
2023-01-18T01:15:16.674Z,0.0
2023-01-18T01:20:16.701Z,0.0
2023-01-18T01:25:16.695Z,0.0
2023-01-18T01:30:19.695Z,0.0
2023-01-18T01:35:19.691Z,0.0
2023-01-18T01:40:19.636Z,0.0
2023-01-18T01:45:19.719Z,0.0
2023-01-18T01:50:16.725Z,0.0
2023-01-18T01:55:16.723Z,0.0
2023-01-18T02:00:16.734Z,0.0
2023-01-18T02:05:19.715Z,0.0
2023-01-18T02:10:19.742Z,0.0
2023-01-18T02:15:18.180Z,0.0
2023-01-18T02:20:19.742Z,0.0
2023-01-18T02:25:19.682Z,0.0
2023-01-18T02:30:19.693Z,0.0
2023-01-18T02:35:19.646Z,0.0
2023-01-18T02:40:19.656Z,0.0
2023-01-18T02:45:19.675Z,0.0
2023-01-18T02:50:16.695Z,0.0
2023-01-18T02:55:19.713Z,0.0
2023-01-18T03:00:19.695Z,0.0
2023-01-18T03:05:19.691Z,0.0
2023-01-18T03:10:19.648Z,0.0
2023-01-18T03:15:16.752Z,0.0
2023-01-18T03:20:16.734Z,0.0
2023-01-18T03:25:16.802Z,0.0
2023-01-18T03:30:19.756Z,0.0
2023-01-18T03:35:19.776Z,0.0
2023-01-18T03:40:19.726Z,0.0
2023-01-18T03:45:19.822Z,0.0
2023-01-18T03:50:16.742Z,0.0
2023-01-18T03:55:19.765Z,0.0
2023-01-18T04:00:19.725Z,0.0
2023-01-18T04:05:16.760Z,0.0
2023-01-18T04:10:19.749Z,0.0
2023-01-18T04:15:19.744Z,0.0
2023-01-18T04:20:19.720Z,0.0
2023-01-18T04:25:19.758Z,0.0
2023-01-18T04:30:16.800Z,0.0
2023-01-18T04:35:19.771Z,0.0
2023-01-18T04:40:19.739Z,0.0
2023-01-18T04:45:19.881Z,0.0
2023-01-18T04:50:16.573Z,0.0
2023-01-18T04:55:16.808Z,0.0
2023-01-18T05:00:15.849Z,0.0
2023-01-18T05:05:19.028Z,0.0
2023-01-18T05:10:19.012Z,0.0
2023-01-18T05:15:16.055Z,0.0
2023-01-18T05:20:16.063Z,0.0
2023-01-18T05:25:19.168Z,0.0
2023-01-18T05:30:19.003Z,0.0
2023-01-18T05:35:19.000Z,0.0
2023-01-18T05:40:15.976Z,0.0
2023-01-18T05:45:19.090Z,0.0
2023-01-18T05:50:16.111Z,0.0
2023-01-18T05:55:16.116Z,0.0
2023-01-18T06:00:16.100Z,0.0
2023-01-18T06:05:16.139Z,0.0
2023-01-18T06:10:19.078Z,0.0
2023-01-18T06:15:19.070Z,0.0
2023-01-18T06:20:16.072Z,0.0
2023-01-18T06:25:19.100Z,0.0
2023-01-18T06:30:16.165Z,0.0
2023-01-18T06:35:16.051Z,0.0
2023-01-18T06:40:19.090Z,0.0
2023-01-18T06:45:16.140Z,0.0
2023-01-18T06:50:19.051Z,0.0
2023-01-18T06:55:16.130Z,0.0
2023-01-18T07:00:19.131Z,0.0
2023-01-18T07:05:19.084Z,0.0
2023-01-18T07:10:19.017Z,0.0
2023-01-18T07:15:22.988Z,0.0
2023-01-18T07:20:19.091Z,0.0
2023-01-18T07:25:19.090Z,0.0
2023-01-18T07:30:16.105Z,0.0
2023-01-18T07:35:19.148Z,0.0
2023-01-18T07:40:16.084Z,0.0
2023-01-18T07:45:19.103Z,0.0
2023-01-18T07:50:16.154Z,0.0
2023-01-18T07:55:16.125Z,0.0
2023-01-18T08:00:16.124Z,0.0
2023-01-18T08:05:16.139Z,0.0
2023-01-18T08:10:16.153Z,0.0
2023-01-18T08:15:16.172Z,0.0
2023-01-18T08:20:19.179Z,0.0
2023-01-18T08:25:16.159Z,0.0
2023-01-18T08:30:16.146Z,0.0
2023-01-18T08:35:16.158Z,0.0
2023-01-18T08:40:16.158Z,0.0
2023-01-18T08:45:16.149Z,0.0
2023-01-18T08:50:16.149Z,0.0
2023-01-18T08:55:16.185Z,0.0
2023-01-18T09:00:19.135Z,0.0
2023-01-18T09:05:16.199Z,0.0
2023-01-18T09:10:19.185Z,0.0
2023-01-18T09:15:19.154Z,0.0
2023-01-18T09:20:19.382Z,0.0
2023-01-18T09:25:19.111Z,0.0
2023-01-18T09:30:19.112Z,0.0
2023-01-18T09:35:16.154Z,0.0
2023-01-18T09:40:19.221Z,0.0
2023-01-18T09:45:19.176Z,0.0
2023-01-18T09:50:19.125Z,0.0
2023-01-18T09:55:16.256Z,0.0
2023-01-18T10:00:16.329Z,0.0
2023-01-18T10:05:16.170Z,0.0
2023-01-18T10:10:16.189Z,0.0
2023-01-18T10:15:19.140Z,0.0
2023-01-18T10:20:19.174Z,0.0
2023-01-18T10:25:19.201Z,0.0
2023-01-18T10:30:19.147Z,0.0
2023-01-18T10:35:19.172Z,0.0
2023-01-18T10:40:19.160Z,0.0
2023-01-18T10:45:19.272Z,0.0
2023-01-18T10:50:19.194Z,0.0
2023-01-18T10:55:19.190Z,0.0
2023-01-18T11:00:16.214Z,0.0
2023-01-18T11:05:19.223Z,0.0
2023-01-18T11:10:16.221Z,0.0
2023-01-18T11:15:16.020Z,0.0
2023-01-18T11:20:19.226Z,0.0
2023-01-18T11:25:16.273Z,0.0
2023-01-18T11:30:16.213Z,0.0
2023-01-18T11:35:19.239Z,0.0
2023-01-18T11:40:16.215Z,0.0
2023-01-18T11:45:19.227Z,0.0
2023-01-18T11:50:22.559Z,0.0
2023-01-18T11:55:19.306Z,0.0
2023-01-18T12:00:16.275Z,0.0
2023-01-18T12:05:19.258Z,0.0
2023-01-18T12:10:19.207Z,0.0
2023-01-18T12:15:19.260Z,0.0
2023-01-18T12:20:19.247Z,0.0
2023-01-18T12:25:19.208Z,0.0
2023-01-18T12:30:16.306Z,0.0
2023-01-18T12:35:24.167Z,0.0
2023-01-18T12:40:16.518Z,0.0
2023-01-18T12:45:19.315Z,0.0
2023-01-18T12:50:16.272Z,0.0
2023-01-18T12:55:19.262Z,0.0
2023-01-18T13:00:19.272Z,0.0
2023-01-18T13:05:19.218Z,0.0
2023-01-18T13:10:19.237Z,0.0
2023-01-18T13:15:19.270Z,0.0
2023-01-18T13:20:19.233Z,0.0
2023-01-18T13:25:19.284Z,0.0
2023-01-18T13:30:19.268Z,0.0
2023-01-18T13:35:21.254Z,0.0
2023-01-18T13:40:16.301Z,0.0
2023-01-18T13:45:16.347Z,0.0
2023-01-18T13:50:16.310Z,0.0
2023-01-18T13:55:16.261Z,0.0
2023-01-18T14:00:16.298Z,0.0
2023-01-18T14:05:19.306Z,0.0
2023-01-18T14:10:19.287Z,0.0
2023-01-18T14:15:16.303Z,0.0
2023-01-18T14:20:16.304Z,0.0
2023-01-18T14:25:19.344Z,0.0
2023-01-18T14:30:19.290Z,0.0
2023-01-18T14:35:19.369Z,0.8
2023-01-18T14:40:19.246Z,1.3
2023-01-18T14:45:16.410Z,1.3
2023-01-18T14:50:19.341Z,1.3
2023-01-18T14:55:19.538Z,1.4
2023-01-18T15:00:19.333Z,1.4
2023-01-18T15:05:19.305Z,1.4
2023-01-18T15:10:19.297Z,1.5
2023-01-18T15:15:19.276Z,1.5
2023-01-18T15:20:19.280Z,1.5
2023-01-18T15:25:19.373Z,1.5
2023-01-18T15:30:19.462Z,1.5
2023-01-18T15:35:19.298Z,1.5
2023-01-18T15:40:19.314Z,1.6
2023-01-18T15:45:19.312Z,1.7
2023-01-18T15:50:19.309Z,1.6
2023-01-18T15:55:19.305Z,1.6
2023-01-18T16:00:19.321Z,1.7
2023-01-18T16:05:16.337Z,1.7
2023-01-18T16:10:16.374Z,1.7
2023-01-18T16:15:19.340Z,1.7
2023-01-18T16:20:19.343Z,1.6
2023-01-18T16:25:16.391Z,1.5
2023-01-18T16:30:16.355Z,1.5
2023-01-18T16:35:19.485Z,1.5
2023-01-18T16:40:16.480Z,1.6
2023-01-18T16:45:19.352Z,1.6
2023-01-18T16:50:19.406Z,1.6
2023-01-18T16:55:19.408Z,1.6
2023-01-18T17:00:16.355Z,1.4
2023-01-18T17:05:16.479Z,1.5
2023-01-18T17:10:19.377Z,1.5
2023-01-18T17:15:17.386Z,1.5
2023-01-18T17:20:16.395Z,1.4
2023-01-18T17:25:19.465Z,1.5
2023-01-18T17:30:16.291Z,1.5
2023-01-18T17:35:16.395Z,1.5
2023-01-18T17:40:27.525Z,1.5
2023-01-18T17:45:19.437Z,1.4
2023-01-18T17:50:19.352Z,1.4
2023-01-18T17:55:27.216Z,1.4
2023-01-18T18:00:19.431Z,1.4
2023-01-18T18:05:19.383Z,1.4
2023-01-18T18:10:19.344Z,1.4
2023-01-18T18:15:19.363Z,0.8
2023-01-18T18:20:21.947Z,1.3
2023-01-18T18:25:16.473Z,1.1
2023-01-18T18:30:16.395Z,1.3
2023-01-18T18:35:25.603Z,1.1
2023-01-18T18:40:19.468Z,1.3
2023-01-18T18:45:16.445Z,1.2
2023-01-18T18:50:16.264Z,1.2
2023-01-18T18:55:19.459Z,1.1
2023-01-18T19:00:16.433Z,1.1
2023-01-18T19:05:19.472Z,1.1
2023-01-18T19:10:19.513Z,1.1
2023-01-18T19:15:19.425Z,1.1
2023-01-18T19:20:19.370Z,0.2
2023-01-18T19:25:19.467Z,1.0
2023-01-18T19:30:19.452Z,0.0
2023-01-18T19:35:19.446Z,0.0
2023-01-18T19:40:19.432Z,0.2
2023-01-18T19:45:23.113Z,0.5
2023-01-18T19:50:16.470Z,0.0
2023-01-18T19:55:19.544Z,0.5
2023-01-18T20:00:19.403Z,0.9
2023-01-18T20:05:16.489Z,0.5
2023-01-18T20:10:19.459Z,0.0
2023-01-18T20:15:16.511Z,0.0
2023-01-18T20:20:24.195Z,0.0
2023-01-18T20:25:16.486Z,0.3
2023-01-18T20:30:19.428Z,0.8
2023-01-18T20:35:19.485Z,0.8
2023-01-18T20:40:19.429Z,0.4
2023-01-18T20:45:19.511Z,0.4
2023-01-18T20:50:19.467Z,0.7
2023-01-18T20:55:19.555Z,0.7
2023-01-18T21:00:20.352Z,0.7
2023-01-18T21:05:19.447Z,0.7
2023-01-18T21:10:19.491Z,0.6
2023-01-18T21:15:16.508Z,0.0
2023-01-18T21:20:16.547Z,0.0
2023-01-18T21:25:16.569Z,0.0
2023-01-18T21:30:19.470Z,0.0
2023-01-18T21:35:19.446Z,0.0
2023-01-18T21:40:19.502Z,0.0
2023-01-18T21:45:19.515Z,0.0
2023-01-18T21:50:19.506Z,0.0
2023-01-18T21:55:19.488Z,0.0
2023-01-18T22:00:16.512Z,0.0
2023-01-18T22:05:19.505Z,0.0
2023-01-18T22:10:16.333Z,0.0
2023-01-18T22:15:16.531Z,0.0
2023-01-18T22:20:16.514Z,0.0
2023-01-18T22:25:19.517Z,0.0
2023-01-18T22:30:19.518Z,0.0
2023-01-18T22:35:19.469Z,0.0
2023-01-18T22:40:16.549Z,0.0
2023-01-18T22:45:19.518Z,0.0
2023-01-18T22:50:16.559Z,0.0
2023-01-18T22:55:16.580Z,0.0
2023-01-18T23:00:19.520Z,0.0
2023-01-18T23:05:19.606Z,0.0
2023-01-18T23:10:16.553Z,0.0
2023-01-18T23:15:19.590Z,0.0
2023-01-18T23:20:19.532Z,0.0
2023-01-18T23:25:16.471Z,0.0
2023-01-18T23:30:19.535Z,0.0
2023-01-18T23:35:16.572Z,0.0
2023-01-18T23:40:16.577Z,0.0
2023-01-18T23:45:19.600Z,0.0
2023-01-18T23:50:19.520Z,0.0
2023-01-18T23:55:19.498Z,0.0
